Time;durP1;ratioP1;P1;durP2;ratioP2;P2;SDS_P1;SDS_P2;PMS_P1;PMS_P2;Temp;Humidity;BMP_temperature;BMP_pressure;BME280_temperature;BME280_humidity;BME280_pressure;Samples;Min_cycle;Max_cycle;Signal;HPM_P1;HPM_P2
2020/12/16 00:00:27;;;;;;;27.67;16.83;;;;;;;;;;4958121;29;20568;-89
2020/12/16 00:03:33;;;;;;;28.00;17.07;;;;;;;;;;4947452;29;20657;-89
2020/12/16 00:06:37;;;;;;;28.73;16.97;;;;;;;;;;4947617;29;20548;-89
2020/12/16 00:09:42;;;;;;;27.00;16.63;;;;;;;;;;4947407;29;20543;-89
2020/12/16 00:12:46;;;;;;;25.23;16.10;;;;;;;;;;4946867;29;20622;-89
2020/12/16 00:15:50;;;;;;;24.47;16.10;;;;;;;;;;4947495;29;20539;-89
2020/12/16 00:18:54;;;;;;;25.30;16.60;;;;;;;;;;4935878;29;20613;-89
2020/12/16 00:22:00;;;;;;;23.33;15.67;;;;;;;;;;4946903;29;20535;-89
2020/12/16 00:25:04;;;;;;;26.40;16.80;;;;;;;;;;4946789;29;20547;-89
2020/12/16 00:28:09;;;;;;;25.57;16.37;;;;;;;;;;4946740;29;20607;-89
2020/12/16 00:31:13;;;;;;;23.50;15.20;;;;;;;;;;4946575;29;20654;-89
2020/12/16 00:34:17;;;;;;;22.20;13.93;;;;;;;;;;4946314;29;20631;-89
2020/12/16 00:37:21;;;;;;;27.27;16.30;;;;;;;;;;4946263;29;20594;-89
2020/12/16 00:40:26;;;;;;;27.80;16.57;;;;;;;;;;4946442;29;20634;-89
2020/12/16 00:43:30;;;;;;;29.17;16.27;;;;;;;;;;4946486;29;20630;-89
2020/12/16 00:46:34;;;;;;;22.83;14.73;;;;;;;;;;4946609;29;20547;-89
2020/12/16 00:49:39;;;;;;;23.00;15.10;;;;;;;;;;4946688;29;20544;-89
2020/12/16 00:52:43;;;;;;;27.00;17.07;;;;;;;;;;4935248;29;21036;-89
2020/12/16 00:55:47;;;;;;;26.53;16.97;;;;;;;;;;4957108;29;20611;-89
2020/12/16 00:58:55;;;;;;;26.67;16.43;;;;;;;;;;4945717;29;20547;-89
2020/12/16 01:02:03;;;;;;;23.33;15.77;;;;;;;;;;4945946;29;21094;-89
2020/12/16 01:05:07;;;;;;;24.67;15.60;;;;;;;;;;4944921;29;21202;-89
2020/12/16 01:08:12;;;;;;;29.40;17.30;;;;;;;;;;4946225;29;20551;-89
2020/12/16 01:11:19;;;;;;;31.97;18.00;;;;;;;;;;4945492;29;20607;-89
2020/12/16 01:14:23;;;;;;;27.77;16.17;;;;;;;;;;4957045;29;20626;-89
2020/12/16 01:17:29;;;;;;;26.27;16.33;;;;;;;;;;4935121;29;20552;-89
2020/12/16 01:20:33;;;;;;;24.90;15.87;;;;;;;;;;4946165;29;20543;-89
2020/12/16 01:23:37;;;;;;;30.90;18.00;;;;;;;;;;4945644;29;20954;-89
2020/12/16 01:26:47;;;;;;;28.63;16.97;;;;;;;;;;4945624;29;21126;-89
2020/12/16 01:29:52;;;;;;;26.83;16.10;;;;;;;;;;4945417;29;20539;-89
2020/12/16 01:32:57;;;;;;;30.37;17.47;;;;;;;;;;4945661;29;20654;-89
2020/12/16 01:36:01;;;;;;;31.43;17.80;;;;;;;;;;4956545;29;20544;-89
2020/12/16 01:39:11;;;;;;;31.17;18.70;;;;;;;;;;4944929;29;20888;-89
2020/12/16 01:42:16;;;;;;;29.70;18.00;;;;;;;;;;4945330;29;20602;-89
2020/12/16 01:45:22;;;;;;;30.97;18.03;;;;;;;;;;4945012;29;20603;-89
2020/12/16 01:48:28;;;;;;;27.60;16.17;;;;;;;;;;4934485;29;20552;-89
2020/12/16 01:51:33;;;;;;;35.97;19.47;;;;;;;;;;4934443;29;20599;-89
2020/12/16 01:54:39;;;;;;;36.23;19.43;;;;;;;;;;4945078;29;20548;-89
2020/12/16 01:57:53;;;;;;;34.37;18.93;;;;;;;;;;4944664;29;20547;-89
2020/12/16 02:01:02;;;;;;;34.17;18.47;;;;;;;;;;4944879;29;20540;-89
2020/12/16 02:04:11;;;;;;;36.50;19.53;;;;;;;;;;4944468;29;20646;-89
2020/12/16 02:07:15;;;;;;;34.93;18.10;;;;;;;;;;4956286;29;21189;-89
2020/12/16 02:10:20;;;;;;;33.97;17.90;;;;;;;;;;4944794;29;20544;-89
2020/12/16 02:13:25;;;;;;;35.37;18.17;;;;;;;;;;4945122;29;20975;-88
2020/12/16 02:16:35;;;;;;;32.73;17.90;;;;;;;;;;4944645;28;20547;-89
2020/12/16 02:19:58;;;;;;;31.37;17.27;;;;;;;;;;4945036;29;20539;-89
2020/12/16 02:23:09;;;;;;;45.97;23.03;;;;;;;;;;4944487;29;20631;-89
2020/12/16 02:26:18;;;;;;;40.80;21.93;;;;;;;;;;4934389;29;20559;-89
2020/12/16 02:29:31;;;;;;;40.63;20.47;;;;;;;;;;4943607;29;20607;-89
2020/12/16 02:32:42;;;;;;;38.23;20.50;;;;;;;;;;4943482;29;20662;-89
2020/12/16 02:35:46;;;;;;;42.60;21.60;;;;;;;;;;4944652;29;21101;-89
2020/12/16 02:38:54;;;;;;;38.80;21.37;;;;;;;;;;4943854;29;20548;-89
2020/12/16 02:42:06;;;;;;;42.13;22.30;;;;;;;;;;4933628;29;20543;-90
2020/12/16 02:45:10;;;;;;;43.17;21.43;;;;;;;;;;4944494;29;21095;-89
2020/12/16 02:48:19;;;;;;;40.43;20.47;;;;;;;;;;4943405;29;20923;-89
2020/12/16 02:51:23;;;;;;;35.50;19.33;;;;;;;;;;4944478;29;20540;-89
2020/12/16 02:54:27;;;;;;;42.07;20.87;;;;;;;;;;4943941;29;20959;-89
2020/12/16 02:57:50;;;;;;;40.70;22.20;;;;;;;;;;4935635;29;21102;-89
2020/12/16 03:00:54;;;;;;;37.73;21.30;;;;;;;;;;4944031;29;20606;-89
2020/12/16 03:04:37;;;;;;;40.57;20.97;;;;;;;;;;4883703;29;20618;-89
2020/12/16 03:07:54;;;;;;;38.37;20.87;;;;;;;;;;4881538;29;20630;-89
2020/12/16 03:10:59;;;;;;;41.13;21.80;;;;;;;;;;4955031;29;20543;-89
2020/12/16 03:14:03;;;;;;;40.90;21.10;;;;;;;;;;4943682;29;20623;-89
2020/12/16 03:17:07;;;;;;;43.67;21.77;;;;;;;;;;4943900;29;20876;-90
2020/12/16 03:20:17;;;;;;;40.33;20.20;;;;;;;;;;4933972;29;20544;-90
2020/12/16 03:23:21;;;;;;;37.83;21.50;;;;;;;;;;4943689;29;20634;-90
2020/12/16 03:26:45;;;;;;;40.43;20.70;;;;;;;;;;4943413;29;20626;-89
2020/12/16 03:29:58;;;;;;;40.27;20.47;;;;;;;;;;4946026;29;20603;-89
2020/12/16 03:33:27;;;;;;;43.17;21.23;;;;;;;;;;4958629;29;20671;-89
2020/12/16 03:36:45;;;;;;;42.47;21.30;;;;;;;;;;4956788;29;21089;-89
2020/12/16 03:39:49;;;;;;;39.33;21.07;;;;;;;;;;4947623;29;21109;-89
2020/12/16 03:43:00;;;;;;;41.23;20.83;;;;;;;;;;4946733;29;20630;-89
2020/12/16 03:46:08;;;;;;;41.93;21.70;;;;;;;;;;4947478;29;21112;-89
2020/12/16 03:49:12;;;;;;;38.70;20.60;;;;;;;;;;4957969;29;20603;-89
2020/12/16 03:52:16;;;;;;;41.20;20.10;;;;;;;;;;4947289;29;20595;-89
2020/12/16 03:55:32;;;;;;;40.33;20.33;;;;;;;;;;4945400;29;20750;-89
2020/12/16 03:58:47;;;;;;;35.77;18.43;;;;;;;;;;4956812;29;20548;-89
2020/12/16 04:01:57;;;;;;;34.00;18.90;;;;;;;;;;4936796;29;20587;-90
2020/12/16 04:05:04;;;;;;;36.03;20.20;;;;;;;;;;4947364;29;20547;-89
2020/12/16 04:08:09;;;;;;;35.77;18.73;;;;;;;;;;4947160;29;20551;-89
2020/12/16 04:11:53;;;;;;;38.83;19.23;;;;;;;;;;4946258;29;21008;-89
2020/12/16 04:15:05;;;;;;;37.80;19.10;;;;;;;;;;4944713;29;20556;-89
2020/12/16 04:18:11;;;;;;;36.70;19.23;;;;;;;;;;4927433;29;20552;-89
2020/12/16 04:21:18;;;;;;;32.53;18.30;;;;;;;;;;4927589;29;20556;-89
2020/12/16 04:24:22;;;;;;;39.87;19.37;;;;;;;;;;4927680;29;20620;-90
2020/12/16 04:27:37;;;;;;;32.97;18.07;;;;;;;;;;4983413;23;20681;-86
2020/12/16 04:30:43;;;;;;;33.37;18.30;;;;;;;;;;4961571;28;20609;-86
2020/12/16 04:33:48;;;;;;;32.60;16.73;;;;;;;;;;4977036;28;20618;-86
2020/12/16 04:36:51;;;;;;;34.30;18.70;;;;;;;;;;4967572;28;20654;-84
2020/12/16 04:39:57;;;;;;;34.80;18.63;;;;;;;;;;4957544;28;21096;-86
2020/12/16 04:43:09;;;;;;;35.70;19.00;;;;;;;;;;4946179;29;20598;-86
2020/12/16 04:46:20;;;;;;;36.83;18.73;;;;;;;;;;4957314;28;20614;-86
2020/12/16 04:49:24;;;;;;;36.53;18.80;;;;;;;;;;4936268;28;20595;-85
2020/12/16 04:52:32;;;;;;;36.13;18.93;;;;;;;;;;4939433;29;20587;-85
2020/12/16 04:55:58;;;;;;;33.73;18.23;;;;;;;;;;4940066;29;20556;-85
2020/12/16 04:59:40;;;;;;;35.00;19.33;;;;;;;;;;4959066;29;20610;-85
2020/12/16 05:03:03;;;;;;;33.90;18.40;;;;;;;;;;4940319;29;20556;-87
2020/12/16 05:06:37;;;;;;;34.87;18.57;;;;;;;;;;4952646;29;20544;-86
2020/12/16 05:09:46;;;;;;;34.37;17.67;;;;;;;;;;4939551;29;20184;-85
2020/12/16 05:13:01;;;;;;;33.70;18.47;;;;;;;;;;4939269;29;20607;-85
2020/12/16 05:16:05;;;;;;;34.47;18.23;;;;;;;;;;4949709;29;20560;-86
2020/12/16 05:19:09;;;;;;;34.40;18.20;;;;;;;;;;4938874;29;20192;-86
2020/12/16 05:22:20;;;;;;;35.30;18.93;;;;;;;;;;4949254;29;20540;-85
2020/12/16 05:25:24;;;;;;;33.47;18.27;;;;;;;;;;4936097;29;20579;-85
2020/12/16 05:28:38;;;;;;;32.47;18.40;;;;;;;;;;4946882;29;20227;-86
2020/12/16 05:31:42;;;;;;;34.03;18.50;;;;;;;;;;4946899;29;20179;-86
2020/12/16 05:34:47;;;;;;;30.97;17.73;;;;;;;;;;4940699;29;20524;-85
2020/12/16 05:37:58;;;;;;;32.70;18.50;;;;;;;;;;4937975;29;20638;-87
2020/12/16 05:41:06;;;;;;;31.37;17.00;;;;;;;;;;4947583;29;20560;-87
2020/12/16 05:44:21;;;;;;;30.20;17.37;;;;;;;;;;4950395;29;20512;-87
2020/12/16 05:47:26;;;;;;;30.73;17.30;;;;;;;;;;4938801;29;20219;-87
2020/12/16 05:50:51;;;;;;;30.80;16.70;;;;;;;;;;4952153;28;20540;-87
2020/12/16 05:53:55;;;;;;;29.17;17.57;;;;;;;;;;4936674;29;20207;-85
2020/12/16 05:57:29;;;;;;;34.67;17.90;;;;;;;;;;4950077;29;20626;-86
2020/12/16 06:00:45;;;;;;;28.30;16.47;;;;;;;;;;4948559;29;20548;-85
2020/12/16 06:03:50;;;;;;;35.30;17.93;;;;;;;;;;4939137;29;20551;-85
2020/12/16 06:06:55;;;;;;;33.80;17.20;;;;;;;;;;4951235;29;20619;-86
2020/12/16 06:09:59;;;;;;;31.93;16.70;;;;;;;;;;4941164;29;20876;-85
2020/12/16 06:13:04;;;;;;;28.97;16.43;;;;;;;;;;4942476;29;20610;-86
2020/12/16 06:16:09;;;;;;;31.93;16.57;;;;;;;;;;4963815;29;20551;-85
2020/12/16 06:19:24;;;;;;;34.53;18.23;;;;;;;;;;4952423;29;20179;-86
2020/12/16 06:22:32;;;;;;;28.63;17.60;;;;;;;;;;4951016;29;20599;-85
2020/12/16 06:25:47;;;;;;;37.20;21.87;;;;;;;;;;4936454;29;20572;-84
2020/12/16 06:28:52;;;;;;;38.63;22.10;;;;;;;;;;4946440;29;21221;-84
2020/12/16 06:32:02;;;;;;;31.03;17.43;;;;;;;;;;4946740;29;20611;-85
2020/12/16 06:35:11;;;;;;;27.93;16.53;;;;;;;;;;4957915;29;20532;-84
2020/12/16 06:38:21;;;;;;;28.27;17.13;;;;;;;;;;4945868;29;20631;-84
2020/12/16 06:41:28;;;;;;;34.57;18.40;;;;;;;;;;4956657;29;20559;-84
2020/12/16 06:44:32;;;;;;;28.67;15.87;;;;;;;;;;4935360;29;20896;-84
2020/12/16 06:47:37;;;;;;;27.27;14.83;;;;;;;;;;4934699;29;20215;-85
2020/12/16 06:50:40;;;;;;;31.07;16.73;;;;;;;;;;4957621;28;20599;-84
2020/12/16 06:53:45;;;;;;;33.27;17.33;;;;;;;;;;4934283;29;21216;-84
2020/12/16 06:57:08;;;;;;;34.33;17.40;;;;;;;;;;4946105;29;20638;-84
2020/12/16 07:00:22;;;;;;;31.27;16.93;;;;;;;;;;4934825;29;20183;-85
2020/12/16 07:03:30;;;;;;;28.83;16.10;;;;;;;;;;4945274;29;20555;-84
2020/12/16 07:06:36;;;;;;;30.07;15.37;;;;;;;;;;4957971;28;21184;-84
2020/12/16 07:09:40;;;;;;;26.90;16.13;;;;;;;;;;4958406;29;21098;-85
2020/12/16 07:12:45;;;;;;;31.47;16.47;;;;;;;;;;4945647;29;20614;-84
2020/12/16 07:15:55;;;;;;;29.40;16.03;;;;;;;;;;4935109;29;20557;-85
2020/12/16 07:18:59;;;;;;;31.80;15.57;;;;;;;;;;4945556;29;20549;-85
2020/12/16 07:22:19;;;;;;;31.60;16.77;;;;;;;;;;4934463;29;20564;-81
2020/12/16 07:25:23;;;;;;;34.50;17.90;;;;;;;;;;4934103;29;20539;-84
2020/12/16 07:28:32;;;;;;;32.60;17.90;;;;;;;;;;4935398;29;21241;-85
2020/12/16 07:31:36;;;;;;;36.63;18.97;;;;;;;;;;4956588;29;20560;-84
2020/12/16 07:34:52;;;;;;;36.87;20.13;;;;;;;;;;4955752;29;20642;-84
2020/12/16 07:37:59;;;;;;;33.87;18.70;;;;;;;;;;4945115;29;20634;-84
2020/12/16 07:41:03;;;;;;;41.57;21.37;;;;;;;;;;4933679;29;20599;-84
2020/12/16 07:44:09;;;;;;;41.30;20.67;;;;;;;;;;4956491;28;20595;-84
2020/12/16 07:47:16;;;;;;;36.50;19.43;;;;;;;;;;4944943;29;21200;-84
2020/12/16 07:50:20;;;;;;;34.13;19.53;;;;;;;;;;4956134;29;20551;-84
2020/12/16 07:53:24;;;;;;;32.97;18.70;;;;;;;;;;4957213;29;20599;-84
2020/12/16 07:56:28;;;;;;;35.53;20.47;;;;;;;;;;4945508;29;20548;-84
2020/12/16 07:59:35;;;;;;;40.53;20.53;;;;;;;;;;4944973;29;20180;-84
2020/12/16 08:07:50;;;;;;;35.10;19.10;;;;;;;;;;4959237;29;20207;-85
2020/12/16 08:10:55;;;;;;;34.93;18.77;;;;;;;;;;4944172;29;20560;-85
2020/12/16 08:14:08;;;;;;;30.90;17.77;;;;;;;;;;4944428;28;21129;-85
2020/12/16 08:17:12;;;;;;;41.77;21.07;;;;;;;;;;4959325;29;20635;-85
2020/12/16 08:20:22;;;;;;;31.13;17.03;;;;;;;;;;4958784;29;20610;-84
2020/12/16 08:23:26;;;;;;;36.87;19.20;;;;;;;;;;4947398;29;20563;-85
2020/12/16 08:26:30;;;;;;;32.00;18.23;;;;;;;;;;4936930;29;20535;-85
2020/12/16 08:29:38;;;;;;;33.00;17.93;;;;;;;;;;4948216;29;20547;-85
2020/12/16 08:33:06;;;;;;;31.93;17.17;;;;;;;;;;4937043;29;20575;-85
2020/12/16 08:36:17;;;;;;;29.07;16.90;;;;;;;;;;4958375;29;20891;-85
2020/12/16 08:39:27;;;;;;;29.17;16.13;;;;;;;;;;4936399;29;20180;-84
2020/12/16 08:42:31;;;;;;;29.97;17.40;;;;;;;;;;4957906;28;20682;-84
2020/12/16 08:45:35;;;;;;;31.60;17.27;;;;;;;;;;4946780;29;21122;-84
2020/12/16 08:48:46;;;;;;;32.93;17.13;;;;;;;;;;4957970;29;20630;-84
2020/12/16 08:51:50;;;;;;;31.30;17.57;;;;;;;;;;4947199;29;20196;-84
2020/12/16 08:54:54;;;;;;;27.23;17.20;;;;;;;;;;4957670;29;20199;-85
2020/12/16 08:58:01;;;;;;;31.27;18.80;;;;;;;;;;4946429;29;20571;-83
2020/12/16 09:01:07;;;;;;;28.83;16.47;;;;;;;;;;4958818;29;20184;-83
2020/12/16 09:04:22;;;;;;;31.13;17.53;;;;;;;;;;4946323;29;20528;-84
2020/12/16 09:07:26;;;;;;;32.53;17.77;;;;;;;;;;4945903;29;20215;-84
2020/12/16 09:10:35;;;;;;;28.07;17.63;;;;;;;;;;4946363;29;20179;-84
2020/12/16 09:13:38;;;;;;;30.70;16.70;;;;;;;;;;4957140;29;20211;-84
2020/12/16 09:16:43;;;;;;;29.83;16.27;;;;;;;;;;4957506;29;20528;-84
2020/12/16 09:19:47;;;;;;;29.87;16.90;;;;;;;;;;4946105;29;20187;-84
2020/12/16 09:22:54;;;;;;;29.93;17.47;;;;;;;;;;4957553;29;20180;-84
2020/12/16 09:25:58;;;;;;;29.70;17.43;;;;;;;;;;4945037;28;20551;-83
2020/12/16 09:29:12;;;;;;;30.10;17.17;;;;;;;;;;4957858;28;20195;-84
2020/12/16 09:32:18;;;;;;;31.87;17.23;;;;;;;;;;4935687;29;20188;-85
2020/12/16 09:35:24;;;;;;;30.77;17.10;;;;;;;;;;4935300;29;20207;-85
2020/12/16 09:38:28;;;;;;;30.93;17.40;;;;;;;;;;4945997;29;20219;-85
2020/12/16 09:41:49;;;;;;;31.00;17.60;;;;;;;;;;4957509;29;20179;-85
2020/12/16 09:45:08;;;;;;;32.60;16.90;;;;;;;;;;4957362;29;20627;-86
2020/12/16 09:48:12;;;;;;;28.60;16.57;;;;;;;;;;4945689;29;20215;-85
2020/12/16 09:51:21;;;;;;;28.97;17.30;;;;;;;;;;4957134;29;20176;-85
2020/12/16 09:54:30;;;;;;;30.90;16.60;;;;;;;;;;4935011;29;20216;-85
2020/12/16 09:57:34;;;;;;;30.23;16.67;;;;;;;;;;4945847;29;20224;-85
2020/12/16 10:00:43;;;;;;;27.80;16.93;;;;;;;;;;4935461;29;20179;-85
2020/12/16 10:03:48;;;;;;;29.50;16.73;;;;;;;;;;4957494;29;20536;-85
2020/12/16 10:06:53;;;;;;;26.50;16.07;;;;;;;;;;4945848;29;20210;-84
2020/12/16 10:09:57;;;;;;;27.90;16.00;;;;;;;;;;4945494;29;20199;-85
2020/12/16 10:13:01;;;;;;;27.50;14.80;;;;;;;;;;4945604;29;20176;-85
2020/12/16 10:16:10;;;;;;;27.73;16.97;;;;;;;;;;4934816;29;20175;-84
2020/12/16 10:19:16;;;;;;;29.37;16.53;;;;;;;;;;4934471;29;20670;-85
2020/12/16 10:22:20;;;;;;;28.60;17.13;;;;;;;;;;4945489;29;20191;-84
2020/12/16 10:25:24;;;;;;;28.33;16.27;;;;;;;;;;4945796;29;20184;-84
2020/12/16 10:28:28;;;;;;;26.77;15.63;;;;;;;;;;4956970;28;20575;-85
2020/12/16 10:31:32;;;;;;;27.93;16.37;;;;;;;;;;4945525;29;20504;-85
2020/12/16 10:34:37;;;;;;;29.23;16.60;;;;;;;;;;4934678;29;20662;-85
2020/12/16 10:37:41;;;;;;;25.37;16.30;;;;;;;;;;4934253;28;20227;-85
2020/12/16 10:40:45;;;;;;;25.33;15.07;;;;;;;;;;4934589;29;20203;-85
2020/12/16 10:43:49;;;;;;;27.03;16.23;;;;;;;;;;4945129;29;20199;-85
2020/12/16 10:46:54;;;;;;;27.80;15.30;;;;;;;;;;4944806;29;20690;-85
2020/12/16 10:49:58;;;;;;;23.03;15.03;;;;;;;;;;4934245;29;20179;-85
2020/12/16 10:53:03;;;;;;;22.27;14.37;;;;;;;;;;4956103;29;20183;-85
2020/12/16 10:56:07;;;;;;;22.53;14.93;;;;;;;;;;4956903;29;20183;-85
2020/12/16 10:59:12;;;;;;;24.63;15.70;;;;;;;;;;4944685;29;20195;-85
2020/12/16 11:02:16;;;;;;;26.30;15.43;;;;;;;;;;4944484;29;20199;-85
2020/12/16 11:05:19;;;;;;;25.93;15.33;;;;;;;;;;4944878;29;20183;-85
2020/12/16 11:08:23;;;;;;;27.10;16.33;;;;;;;;;;4945037;29;20215;-85
2020/12/16 11:11:28;;;;;;;23.60;15.10;;;;;;;;;;4934290;29;20187;-86
2020/12/16 11:14:32;;;;;;;23.57;15.30;;;;;;;;;;4955763;29;20207;-85
2020/12/16 11:17:36;;;;;;;27.93;17.23;;;;;;;;;;4944984;29;20706;-85
2020/12/16 11:20:40;;;;;;;27.40;16.23;;;;;;;;;;4945456;29;20175;-86
2020/12/16 11:23:47;;;;;;;27.33;16.63;;;;;;;;;;4944448;29;20195;-85
2020/12/16 11:26:52;;;;;;;27.80;17.50;;;;;;;;;;4944314;28;20714;-85
2020/12/16 11:29:56;;;;;;;21.57;14.17;;;;;;;;;;4956055;29;20631;-84
2020/12/16 11:33:00;;;;;;;23.07;14.87;;;;;;;;;;4955754;29;20191;-85
2020/12/16 11:36:09;;;;;;;22.93;15.10;;;;;;;;;;4956258;29;20211;-87
2020/12/16 11:39:14;;;;;;;24.20;15.10;;;;;;;;;;4934763;29;20188;-87
2020/12/16 11:42:18;;;;;;;21.20;14.63;;;;;;;;;;4945300;29;20540;-85
2020/12/16 11:45:23;;;;;;;21.80;14.97;;;;;;;;;;4957585;28;20195;-87
2020/12/16 11:48:27;;;;;;;22.57;14.97;;;;;;;;;;4956365;28;20227;-87
2020/12/16 11:51:31;;;;;;;24.53;15.47;;;;;;;;;;4949542;29;20188;-87
2020/12/16 11:54:35;;;;;;;21.47;14.90;;;;;;;;;;4938840;29;20207;-87
2020/12/16 11:57:39;;;;;;;20.57;13.70;;;;;;;;;;4960043;29;20232;-86
2020/12/16 12:00:43;;;;;;;19.50;13.60;;;;;;;;;;4960340;29;20184;-87
2020/12/16 12:03:48;;;;;;;21.53;13.90;;;;;;;;;;4961241;29;20627;-86
2020/12/16 12:06:52;;;;;;;18.87;13.13;;;;;;;;;;4949260;29;20211;-86
2020/12/16 12:09:56;;;;;;;20.73;14.03;;;;;;;;;;4950627;29;20527;-86
2020/12/16 12:13:00;;;;;;;21.27;14.33;;;;;;;;;;4961430;29;20659;-85
2020/12/16 12:16:06;;;;;;;20.07;14.40;;;;;;;;;;4950665;29;20207;-85
2020/12/16 12:19:10;;;;;;;19.20;13.33;;;;;;;;;;4950247;29;20631;-85
2020/12/16 12:22:14;;;;;;;19.77;14.00;;;;;;;;;;4960369;29;20643;-85
2020/12/16 12:25:19;;;;;;;20.10;13.00;;;;;;;;;;4948494;29;20179;-85
2020/12/16 12:28:23;;;;;;;19.23;13.03;;;;;;;;;;4958529;29;20231;-85
2020/12/16 12:31:27;;;;;;;21.07;14.33;;;;;;;;;;4936648;29;20196;-86
2020/12/16 12:34:31;;;;;;;20.37;13.67;;;;;;;;;;4936184;29;20695;-85
2020/12/16 12:37:35;;;;;;;18.37;13.67;;;;;;;;;;4947061;29;20223;-85
2020/12/16 12:40:40;;;;;;;24.23;15.27;;;;;;;;;;4946962;29;20207;-85
2020/12/16 12:43:43;;;;;;;22.07;15.37;;;;;;;;;;4947175;29;20188;-85
2020/12/16 12:46:48;;;;;;;23.83;14.60;;;;;;;;;;4935848;29;20187;-85
2020/12/16 12:49:52;;;;;;;21.40;14.67;;;;;;;;;;4958324;29;20183;-84
2020/12/16 12:52:57;;;;;;;20.20;14.23;;;;;;;;;;4947251;29;20180;-85
2020/12/16 12:56:00;;;;;;;22.27;14.43;;;;;;;;;;4959205;28;20218;-85
2020/12/16 12:59:05;;;;;;;25.33;14.60;;;;;;;;;;4947261;29;20184;-86
2020/12/16 13:02:09;;;;;;;23.53;14.80;;;;;;;;;;4958003;28;20183;-85
2020/12/16 13:05:13;;;;;;;24.23;14.23;;;;;;;;;;4947231;29;20195;-85
2020/12/16 13:08:17;;;;;;;20.57;14.83;;;;;;;;;;4957826;29;20215;-85
2020/12/16 13:11:21;;;;;;;19.20;13.93;;;;;;;;;;4946988;29;20180;-85
2020/12/16 13:14:26;;;;;;;21.23;14.80;;;;;;;;;;4947486;29;20656;-85
2020/12/16 13:17:30;;;;;;;18.93;14.00;;;;;;;;;;4947127;29;20219;-85
2020/12/16 13:20:34;;;;;;;20.30;13.97;;;;;;;;;;4958165;29;20175;-85
2020/12/16 13:23:38;;;;;;;20.93;15.37;;;;;;;;;;4935995;29;20207;-85
2020/12/16 13:26:49;;;;;;;23.17;15.87;;;;;;;;;;4957385;29;20203;-86
2020/12/16 13:29:53;;;;;;;20.53;14.67;;;;;;;;;;4957745;29;20497;-85
2020/12/16 13:32:57;;;;;;;21.03;14.37;;;;;;;;;;4935879;29;20183;-86
2020/12/16 13:36:01;;;;;;;23.47;15.00;;;;;;;;;;4957960;29;20689;-85
2020/12/16 13:39:07;;;;;;;21.57;15.17;;;;;;;;;;4957869;29;20199;-86
2020/12/16 13:42:12;;;;;;;23.33;15.90;;;;;;;;;;4947745;29;20203;-85
2020/12/16 13:45:16;;;;;;;24.43;15.83;;;;;;;;;;4935327;29;20179;-86
2020/12/16 13:48:20;;;;;;;25.20;15.70;;;;;;;;;;4982897;23;20203;-75
2020/12/16 13:51:27;;;;;;;25.33;16.77;;;;;;;;;;4956138;29;20284;-72
2020/12/16 13:54:31;;;;;;;28.10;17.13;;;;;;;;;;4956598;29;20180;-72
2020/12/16 13:57:35;;;;;;;29.80;17.23;;;;;;;;;;4956406;29;20187;-72
2020/12/16 14:00:39;;;;;;;29.90;17.13;;;;;;;;;;4956603;29;20192;-72
2020/12/16 14:03:43;;;;;;;26.50;16.50;;;;;;;;;;4956807;29;20203;-72
2020/12/16 14:06:48;;;;;;;27.50;16.33;;;;;;;;;;4957009;29;20199;-72
2020/12/16 14:09:52;;;;;;;26.07;16.23;;;;;;;;;;4956155;29;20180;-72
2020/12/16 14:12:57;;;;;;;29.70;17.37;;;;;;;;;;4966299;28;20543;-72
2020/12/16 14:16:05;;;;;;;30.07;17.53;;;;;;;;;;4966215;28;20231;-72
2020/12/16 14:19:10;;;;;;;29.80;18.10;;;;;;;;;;4956267;29;20188;-72
2020/12/16 14:22:14;;;;;;;28.80;17.77;;;;;;;;;;4956015;29;20560;-72
2020/12/16 14:25:19;;;;;;;28.57;17.37;;;;;;;;;;4956165;29;20176;-72
2020/12/16 14:28:23;;;;;;;34.80;17.70;;;;;;;;;;4955863;29;20183;-72
2020/12/16 14:31:28;;;;;;;27.30;16.13;;;;;;;;;;4956240;29;20571;-72
2020/12/16 14:34:32;;;;;;;28.50;17.00;;;;;;;;;;4966830;28;20524;-72
2020/12/16 14:37:37;;;;;;;26.23;15.87;;;;;;;;;;4956273;29;20631;-72
2020/12/16 14:40:41;;;;;;;24.33;15.27;;;;;;;;;;4955741;29;20188;-72
2020/12/16 14:43:45;;;;;;;26.33;14.90;;;;;;;;;;4956137;29;20548;-72
2020/12/16 14:46:49;;;;;;;28.47;16.03;;;;;;;;;;4956036;29;20183;-72
2020/12/16 14:49:53;;;;;;;28.50;14.63;;;;;;;;;;4965868;28;20202;-72
2020/12/16 14:53:13;;;;;;;24.30;14.53;;;;;;;;;;4953289;28;21249;-72
2020/12/16 14:56:17;;;;;;;23.57;14.77;;;;;;;;;;4954785;29;20277;-72
2020/12/16 14:59:21;;;;;;;26.03;15.30;;;;;;;;;;4965944;28;20887;-72
2020/12/16 15:02:25;;;;;;;23.77;13.97;;;;;;;;;;4955636;29;20219;-72
2020/12/16 15:05:29;;;;;;;24.63;14.80;;;;;;;;;;4955282;29;20540;-72
2020/12/16 15:08:33;;;;;;;25.57;15.27;;;;;;;;;;4955445;29;20606;-72
2020/12/16 15:11:38;;;;;;;26.17;15.97;;;;;;;;;;4955314;29;21005;-72
2020/12/16 15:14:43;;;;;;;25.73;15.60;;;;;;;;;;4954396;29;20550;-72
2020/12/16 15:17:48;;;;;;;23.70;15.23;;;;;;;;;;4965390;28;20176;-72
2020/12/16 15:20:52;;;;;;;24.83;15.03;;;;;;;;;;4955044;29;20211;-72
2020/12/16 15:23:57;;;;;;;26.30;15.07;;;;;;;;;;4954982;29;20547;-72
2020/12/16 15:27:01;;;;;;;27.27;15.33;;;;;;;;;;4955300;29;20599;-72
2020/12/16 15:30:09;;;;;;;22.47;15.13;;;;;;;;;;4965660;28;21090;-72
2020/12/16 15:33:13;;;;;;;30.10;17.40;;;;;;;;;;4954961;29;20556;-72
2020/12/16 15:36:18;;;;;;;26.30;16.80;;;;;;;;;;4954668;29;20606;-72
2020/12/16 15:39:22;;;;;;;26.37;15.87;;;;;;;;;;4955002;29;20547;-72
2020/12/16 15:42:31;;;;;;;29.27;17.20;;;;;;;;;;4955432;29;20626;-72
2020/12/16 15:45:35;;;;;;;26.40;15.93;;;;;;;;;;4965665;28;20602;-72
2020/12/16 15:48:40;;;;;;;27.93;17.23;;;;;;;;;;4954947;29;20619;-72
2020/12/16 15:51:44;;;;;;;30.57;17.27;;;;;;;;;;4954971;29;20219;-72
2020/12/16 15:54:48;;;;;;;28.97;17.57;;;;;;;;;;4954221;29;20551;-72
2020/12/16 15:57:52;;;;;;;28.50;17.57;;;;;;;;;;4954476;29;20917;-72
2020/12/16 16:00:57;;;;;;;30.63;17.17;;;;;;;;;;4954998;29;20622;-72
2020/12/16 16:04:01;;;;;;;32.57;18.80;;;;;;;;;;4954976;29;20547;-72
2020/12/16 16:07:06;;;;;;;33.20;17.83;;;;;;;;;;4955646;29;20180;-72
2020/12/16 16:10:15;;;;;;;32.63;19.03;;;;;;;;;;4955261;29;20884;-71
2020/12/16 16:13:19;;;;;;;33.63;18.87;;;;;;;;;;4954925;29;20547;-72
2020/12/16 16:16:23;;;;;;;35.80;20.20;;;;;;;;;;4954326;29;20598;-72
2020/12/16 16:19:28;;;;;;;32.50;19.33;;;;;;;;;;4955079;29;20547;-72
2020/12/16 16:22:39;;;;;;;34.27;19.53;;;;;;;;;;4954747;29;20627;-72
2020/12/16 16:25:43;;;;;;;30.80;19.70;;;;;;;;;;4954973;29;20551;-72
2020/12/16 16:28:47;;;;;;;31.60;18.80;;;;;;;;;;4953960;29;20880;-72
2020/12/16 16:31:51;;;;;;;31.57;19.23;;;;;;;;;;4953909;29;20963;-72
2020/12/16 16:34:56;;;;;;;30.60;18.90;;;;;;;;;;4954141;28;20180;-72
2020/12/16 16:38:03;;;;;;;35.27;19.77;;;;;;;;;;4958297;29;20536;-72
2020/12/16 16:41:08;;;;;;;32.53;19.33;;;;;;;;;;4957685;29;20634;-72
2020/12/16 16:44:13;;;;;;;37.17;20.83;;;;;;;;;;4957235;29;20179;-71
2020/12/16 16:47:18;;;;;;;37.40;21.53;;;;;;;;;;4968294;28;20547;-72
2020/12/16 16:50:22;;;;;;;39.33;20.60;;;;;;;;;;4968789;28;20622;-72
2020/12/16 16:53:26;;;;;;;34.60;19.33;;;;;;;;;;4968226;28;20559;-72
2020/12/16 16:56:32;;;;;;;30.30;18.67;;;;;;;;;;4956931;29;20619;-72
2020/12/16 16:59:36;;;;;;;28.07;17.60;;;;;;;;;;4956864;29;20556;-72
2020/12/16 17:02:40;;;;;;;30.83;17.97;;;;;;;;;;4957569;29;20622;-72
2020/12/16 17:05:44;;;;;;;29.80;17.90;;;;;;;;;;4957479;29;20543;-72
2020/12/16 17:08:49;;;;;;;31.40;17.33;;;;;;;;;;4967855;28;21105;-72
2020/12/16 17:11:53;;;;;;;28.23;16.80;;;;;;;;;;4957336;29;20630;-72
2020/12/16 17:14:57;;;;;;;32.40;17.73;;;;;;;;;;4957443;29;20563;-72
2020/12/16 17:18:01;;;;;;;30.73;18.20;;;;;;;;;;4957308;29;21171;-72
2020/12/16 17:21:06;;;;;;;35.90;18.10;;;;;;;;;;4957130;29;20618;-72
2020/12/16 17:24:10;;;;;;;31.20;18.47;;;;;;;;;;4967251;28;20930;-72
2020/12/16 17:27:14;;;;;;;61.33;31.57;;;;;;;;;;4956334;29;20560;-72
2020/12/16 17:30:18;;;;;;;32.00;17.53;;;;;;;;;;4957219;29;20603;-73
2020/12/16 17:33:22;;;;;;;31.07;16.80;;;;;;;;;;4956741;29;21174;-72
2020/12/16 17:36:26;;;;;;;27.00;15.97;;;;;;;;;;4956916;29;20599;-72
2020/12/16 17:39:30;;;;;;;25.97;15.90;;;;;;;;;;4957179;29;20556;-72
2020/12/16 17:42:35;;;;;;;27.73;16.93;;;;;;;;;;4967269;28;20663;-72
2020/12/16 17:45:39;;;;;;;25.60;16.70;;;;;;;;;;4957431;29;20543;-73
2020/12/16 17:48:44;;;;;;;28.77;17.20;;;;;;;;;;4955980;29;20598;-73
2020/12/16 17:51:48;;;;;;;29.77;16.60;;;;;;;;;;4956080;29;21289;-72
2020/12/16 17:54:52;;;;;;;31.20;16.00;;;;;;;;;;4956751;29;21173;-72
2020/12/16 17:57:56;;;;;;;32.03;17.77;;;;;;;;;;4966924;28;20654;-72
2020/12/16 18:01:01;;;;;;;30.37;16.53;;;;;;;;;;4955845;29;20623;-72
2020/12/16 18:04:05;;;;;;;30.67;17.33;;;;;;;;;;4956480;29;20884;-72
2020/12/16 18:07:09;;;;;;;31.63;17.40;;;;;;;;;;4955620;29;20942;-72
2020/12/16 18:10:13;;;;;;;34.50;18.00;;;;;;;;;;4956279;29;20556;-72